Time;durP1;ratioP1;P1;durP2;ratioP2;P2;SDS_P1;SDS_P2;PMS_P1;PMS_P2;Temp;Humidity;BMP_temperature;BMP_pressure;BME280_temperature;BME280_humidity;BME280_pressure;Samples;Min_cycle;Max_cycle;Signal;HPM_P1;HPM_P2
2023/08/06 00:01:25;;;;;;;16.30;9.82;;;;;;;;;;5008291;28;20297;-70
2023/08/06 00:03:51;;;;;;;13.85;9.85;;;;;;;;;;5002249;28;20278;-70
2023/08/06 00:06:16;;;;;;;12.38;9.73;;;;;;;;;;5001859;28;20198;-69
2023/08/06 00:08:42;;;;;;;24.00;10.55;;;;;;;;;;5011281;28;20222;-69
2023/08/06 00:11:07;;;;;;;12.93;9.65;;;;;;;;;;5009303;28;20218;-71
2023/08/06 00:13:33;;;;;;;15.30;9.82;;;;;;;;;;5006173;28;20290;-70
2023/08/06 00:16:11;;;;;;;18.08;11.25;;;;;;;;;;4991066;28;20226;-70
2023/08/06 00:18:37;;;;;;;11.93;9.68;;;;;;;;;;5005492;28;20356;-70
2023/08/06 00:21:02;;;;;;;14.45;10.57;;;;;;;;;;5020282;28;20656;-70
2023/08/06 00:23:28;;;;;;;13.63;9.95;;;;;;;;;;4996718;28;20319;-71
2023/08/06 00:25:53;;;;;;;15.73;10.75;;;;;;;;;;5007406;28;20538;-71
2023/08/06 00:28:18;;;;;;;14.88;10.18;;;;;;;;;;5009583;28;20560;-70
2023/08/06 00:30:44;;;;;;;13.82;11.05;;;;;;;;;;5019231;28;20250;-71
2023/08/06 00:33:09;;;;;;;14.35;10.75;;;;;;;;;;5009698;28;20194;-70
2023/08/06 00:35:35;;;;;;;19.17;10.68;;;;;;;;;;5010525;28;20554;-70
2023/08/06 00:38:00;;;;;;;14.00;10.95;;;;;;;;;;5010592;28;20482;-71
2023/08/06 00:40:28;;;;;;;15.57;10.65;;;;;;;;;;5010587;28;20194;-70
2023/08/06 00:42:53;;;;;;;17.25;11.25;;;;;;;;;;5005011;28;20202;-70
2023/08/06 00:45:19;;;;;;;14.00;11.23;;;;;;;;;;5010112;28;20191;-70
2023/08/06 00:47:45;;;;;;;14.63;11.05;;;;;;;;;;5012054;28;20210;-70
2023/08/06 00:50:11;;;;;;;16.45;10.68;;;;;;;;;;5020074;28;20646;-70
2023/08/06 00:52:37;;;;;;;16.38;10.70;;;;;;;;;;5018906;28;20219;-70
2023/08/06 00:55:03;;;;;;;20.90;11.13;;;;;;;;;;5007356;28;20241;-70
2023/08/06 00:57:29;;;;;;;15.30;10.57;;;;;;;;;;5016699;28;20201;-71
2023/08/06 00:59:54;;;;;;;19.48;10.75;;;;;;;;;;5009005;28;20630;-71
2023/08/06 01:02:20;;;;;;;16.40;11.18;;;;;;;;;;5006077;28;20196;-71
2023/08/06 01:04:45;;;;;;;13.38;10.48;;;;;;;;;;5017379;28;20190;-71
2023/08/06 01:07:30;;;;;;;18.88;10.23;;;;;;;;;;5009048;28;20223;-71
2023/08/06 01:10:05;;;;;;;19.55;11.73;;;;;;;;;;5009918;28;20201;-71
2023/08/06 01:13:11;;;;;;;17.23;10.93;;;;;;;;;;5005916;28;20194;-71
2023/08/06 01:15:43;;;;;;;13.57;11.05;;;;;;;;;;4956497;28;20202;-71
2023/08/06 01:18:10;;;;;;;15.63;11.52;;;;;;;;;;5007597;28;20264;-71
2023/08/06 01:20:35;;;;;;;14.90;11.38;;;;;;;;;;5008436;28;20191;-71
2023/08/06 01:23:01;;;;;;;16.92;11.80;;;;;;;;;;5009991;28;20195;-71
2023/08/06 01:25:33;;;;;;;18.75;11.60;;;;;;;;;;4998073;28;20199;-72
2023/08/06 01:28:10;;;;;;;14.07;10.55;;;;;;;;;;4989614;28;20289;-71
2023/08/06 01:30:40;;;;;;;16.40;12.05;;;;;;;;;;4999435;28;20244;-70
2023/08/06 01:33:14;;;;;;;18.13;11.68;;;;;;;;;;4998780;28;20195;-71
2023/08/06 01:35:40;;;;;;;16.20;11.85;;;;;;;;;;5001658;28;20214;-71
2023/08/06 01:38:06;;;;;;;14.93;11.45;;;;;;;;;;4999431;28;20195;-70
2023/08/06 01:40:32;;;;;;;15.80;11.55;;;;;;;;;;4987535;28;20183;-70
2023/08/06 01:42:57;;;;;;;17.20;11.50;;;;;;;;;;5000277;28;20267;-72
2023/08/06 01:45:23;;;;;;;15.68;11.68;;;;;;;;;;4986294;28;20788;-71
2023/08/06 01:47:48;;;;;;;14.05;11.10;;;;;;;;;;4997782;28;20753;-70
2023/08/06 01:50:13;;;;;;;15.20;11.38;;;;;;;;;;4996905;28;20460;-72
2023/08/06 01:52:39;;;;;;;14.60;11.30;;;;;;;;;;5001246;28;20248;-71
2023/08/06 01:55:04;;;;;;;16.55;11.63;;;;;;;;;;4997957;28;20191;-70
2023/08/06 01:57:30;;;;;;;14.63;11.45;;;;;;;;;;4985578;28;20562;-70
2023/08/06 01:59:55;;;;;;;15.55;11.40;;;;;;;;;;4998718;28;20218;-70
2023/08/06 02:02:21;;;;;;;16.33;11.10;;;;;;;;;;4996037;28;20298;-70
2023/08/06 02:04:46;;;;;;;13.20;10.57;;;;;;;;;;5000239;28;20637;-70
2023/08/06 02:07:11;;;;;;;16.67;11.38;;;;;;;;;;5005631;28;20266;-70
2023/08/06 02:09:37;;;;;;;16.20;11.80;;;;;;;;;;5006934;28;20195;-69
2023/08/06 02:12:02;;;;;;;15.98;11.25;;;;;;;;;;4992235;28;20215;-70
2023/08/06 02:14:28;;;;;;;15.07;11.38;;;;;;;;;;5008870;28;20198;-70
2023/08/06 02:16:53;;;;;;;15.05;11.25;;;;;;;;;;5009072;28;20598;-70
2023/08/06 02:19:18;;;;;;;15.82;12.25;;;;;;;;;;5009108;28;20191;-70
2023/08/06 02:21:44;;;;;;;14.25;11.15;;;;;;;;;;5008155;28;20278;-70
2023/08/06 02:24:09;;;;;;;18.50;12.20;;;;;;;;;;5011277;28;20213;-70
2023/08/06 02:26:35;;;;;;;17.35;11.52;;;;;;;;;;5001418;28;20217;-70
2023/08/06 02:29:00;;;;;;;15.60;11.63;;;;;;;;;;4988786;28;20595;-70
2023/08/06 02:31:25;;;;;;;15.65;11.85;;;;;;;;;;4993371;28;20215;-70
2023/08/06 02:33:51;;;;;;;17.00;11.38;;;;;;;;;;4991258;28;20658;-70
2023/08/06 02:36:17;;;;;;;16.88;12.20;;;;;;;;;;4993185;28;20187;-70
2023/08/06 02:38:42;;;;;;;15.70;12.48;;;;;;;;;;4986842;28;20195;-70
2023/08/06 02:41:07;;;;;;;21.05;12.85;;;;;;;;;;4986834;28;20191;-69
2023/08/06 02:43:33;;;;;;;20.90;13.02;;;;;;;;;;5001878;28;20646;-70
2023/08/06 02:45:59;;;;;;;17.00;13.35;;;;;;;;;;4995920;28;20675;-70
2023/08/06 02:48:25;;;;;;;20.05;14.07;;;;;;;;;;4995576;28;20222;-70
2023/08/06 02:50:50;;;;;;;17.73;14.68;;;;;;;;;;4992259;28;20266;-70
2023/08/06 02:53:16;;;;;;;20.85;15.07;;;;;;;;;;4993338;28;20534;-70
2023/08/06 02:55:47;;;;;;;19.02;15.15;;;;;;;;;;4993321;28;20294;-70
2023/08/06 02:58:13;;;;;;;21.67;15.80;;;;;;;;;;4983747;28;20349;-71
2023/08/06 03:00:38;;;;;;;23.58;16.50;;;;;;;;;;5003256;28;20194;-70
2023/08/06 03:03:03;;;;;;;24.80;16.13;;;;;;;;;;4994671;28;20195;-70
2023/08/06 03:05:29;;;;;;;23.08;17.27;;;;;;;;;;4996424;28;20662;-70
2023/08/06 03:07:54;;;;;;;21.25;16.30;;;;;;;;;;4997205;28;20279;-70
2023/08/06 03:10:20;;;;;;;23.58;17.02;;;;;;;;;;4998736;28;20195;-70
2023/08/06 03:12:45;;;;;;;23.83;16.95;;;;;;;;;;4992831;28;20532;-70
2023/08/06 03:15:11;;;;;;;24.63;17.70;;;;;;;;;;4992329;28;20237;-70
2023/08/06 03:17:36;;;;;;;23.13;18.05;;;;;;;;;;4992556;28;20215;-70
2023/08/06 03:20:01;;;;;;;26.05;17.67;;;;;;;;;;4991835;28;20530;-70
2023/08/06 03:22:27;;;;;;;24.35;18.33;;;;;;;;;;4996154;28;20909;-70
2023/08/06 03:24:52;;;;;;;26.38;17.60;;;;;;;;;;4993639;28;20262;-70
2023/08/06 03:27:17;;;;;;;23.92;17.85;;;;;;;;;;5002478;28;20216;-70
2023/08/06 03:29:43;;;;;;;25.73;19.08;;;;;;;;;;5004195;28;20730;-70
2023/08/06 03:32:08;;;;;;;26.30;18.67;;;;;;;;;;5007196;28;20256;-70
2023/08/06 03:34:35;;;;;;;24.75;18.75;;;;;;;;;;5011238;28;20662;-70
2023/08/06 03:37:00;;;;;;;28.65;19.77;;;;;;;;;;5021916;28;20186;-70
2023/08/06 03:39:25;;;;;;;27.38;20.20;;;;;;;;;;5012243;28;20566;-70
2023/08/06 03:41:51;;;;;;;29.15;19.92;;;;;;;;;;5012772;28;20536;-71
2023/08/06 03:44:16;;;;;;;36.00;20.88;;;;;;;;;;5016703;28;20653;-70
2023/08/06 03:46:41;;;;;;;35.78;20.40;;;;;;;;;;5019656;28;20209;-70
2023/08/06 03:49:07;;;;;;;28.17;20.30;;;;;;;;;;5013273;28;20183;-70
2023/08/06 03:51:32;;;;;;;27.67;21.05;;;;;;;;;;5014313;28;20680;-70
2023/08/06 03:53:57;;;;;;;32.88;20.80;;;;;;;;;;5017972;28;20201;-71
2023/08/06 03:56:23;;;;;;;26.85;20.08;;;;;;;;;;5005290;28;20206;-69
2023/08/06 03:58:48;;;;;;;31.65;20.75;;;;;;;;;;4998440;28;20199;-69
2023/08/06 04:01:14;;;;;;;32.47;21.00;;;;;;;;;;4996730;28;20659;-70
2023/08/06 04:03:39;;;;;;;29.23;20.13;;;;;;;;;;5001233;28;20244;-70
2023/08/06 04:06:04;;;;;;;33.08;21.40;;;;;;;;;;5002741;28;20537;-70
2023/08/06 04:08:30;;;;;;;25.35;18.25;;;;;;;;;;5019850;28;20222;-70
2023/08/06 04:10:55;;;;;;;31.63;20.35;;;;;;;;;;5006614;28;20201;-70
2023/08/06 04:13:21;;;;;;;28.35;20.25;;;;;;;;;;4995094;28;20198;-70
2023/08/06 04:15:47;;;;;;;29.33;19.98;;;;;;;;;;5005305;28;20746;-70
2023/08/06 04:18:12;;;;;;;27.38;19.70;;;;;;;;;;4994247;28;20221;-70
2023/08/06 04:20:49;;;;;;;26.85;18.55;;;;;;;;;;4992235;28;20192;-70
2023/08/06 04:23:14;;;;;;;26.70;19.55;;;;;;;;;;5005862;28;20193;-70
2023/08/06 04:25:40;;;;;;;29.42;20.08;;;;;;;;;;5000978;28;20191;-70
2023/08/06 04:28:05;;;;;;;24.45;18.55;;;;;;;;;;5010197;28;20222;-71
2023/08/06 04:30:31;;;;;;;29.83;19.48;;;;;;;;;;5012538;28;20539;-71
2023/08/06 04:32:58;;;;;;;24.10;19.15;;;;;;;;;;5018772;28;20208;-70
2023/08/06 04:35:23;;;;;;;28.33;19.00;;;;;;;;;;4984960;28;20567;-71
2023/08/06 04:37:48;;;;;;;28.83;19.50;;;;;;;;;;5001199;28;20187;-70
2023/08/06 04:40:14;;;;;;;25.67;19.60;;;;;;;;;;5008482;28;20262;-70
2023/08/06 04:42:39;;;;;;;28.33;18.77;;;;;;;;;;5002970;28;20741;-71
2023/08/06 04:45:05;;;;;;;32.55;20.13;;;;;;;;;;5006804;28;20258;-70
2023/08/06 04:47:31;;;;;;;29.08;19.35;;;;;;;;;;5013981;28;20305;-70
2023/08/06 04:49:56;;;;;;;28.05;19.23;;;;;;;;;;4993846;28;20289;-71
2023/08/06 04:52:21;;;;;;;30.15;19.52;;;;;;;;;;4989373;28;20566;-71
2023/08/06 04:54:47;;;;;;;31.60;18.83;;;;;;;;;;4997194;28;20191;-70
2023/08/06 04:57:12;;;;;;;25.17;18.65;;;;;;;;;;5001870;28;20266;-71
2023/08/06 04:59:38;;;;;;;29.63;19.10;;;;;;;;;;5006335;28;20194;-71
2023/08/06 05:02:04;;;;;;;24.85;18.10;;;;;;;;;;5013248;28;20190;-71
2023/08/06 05:04:29;;;;;;;23.00;18.73;;;;;;;;;;4987603;28;20199;-72
2023/08/06 05:06:55;;;;;;;28.90;17.30;;;;;;;;;;5010325;28;20218;-71
2023/08/06 05:09:20;;;;;;;21.48;17.85;;;;;;;;;;5004791;28;20682;-70
2023/08/06 05:11:46;;;;;;;22.35;17.25;;;;;;;;;;5008059;28;20198;-70
2023/08/06 05:14:12;;;;;;;24.60;17.35;;;;;;;;;;5003226;28;20198;-70
2023/08/06 05:16:37;;;;;;;21.95;17.42;;;;;;;;;;4997240;28;20194;-70
2023/08/06 05:19:03;;;;;;;21.70;17.08;;;;;;;;;;5005355;28;20194;-71
2023/08/06 05:21:28;;;;;;;25.10;16.27;;;;;;;;;;5007131;28;20337;-71
2023/08/06 05:23:54;;;;;;;22.10;17.25;;;;;;;;;;5007872;28;20201;-71
2023/08/06 05:26:19;;;;;;;23.00;16.52;;;;;;;;;;5002151;28;20201;-71
2023/08/06 05:28:45;;;;;;;23.15;17.48;;;;;;;;;;4987513;28;20239;-71
2023/08/06 05:31:11;;;;;;;23.33;17.10;;;;;;;;;;4978280;28;20746;-71
2023/08/06 05:33:36;;;;;;;23.33;18.20;;;;;;;;;;4974704;28;20195;-71
2023/08/06 05:36:02;;;;;;;20.23;16.58;;;;;;;;;;4992919;28;20222;-70
2023/08/06 05:38:27;;;;;;;21.17;16.45;;;;;;;;;;4991912;28;20235;-70
2023/08/06 05:40:52;;;;;;;20.60;16.13;;;;;;;;;;4981129;28;20195;-70
2023/08/06 05:43:18;;;;;;;22.77;16.30;;;;;;;;;;4979061;28;20246;-69
2023/08/06 05:45:48;;;;;;;22.65;17.20;;;;;;;;;;4987082;28;20540;-71
2023/08/06 05:48:14;;;;;;;18.13;15.48;;;;;;;;;;4982588;28;20236;-70
2023/08/06 05:50:39;;;;;;;20.02;16.00;;;;;;;;;;4972548;28;20689;-70
2023/08/06 05:53:05;;;;;;;20.90;16.23;;;;;;;;;;4989153;28;20199;-70
2023/08/06 05:55:32;;;;;;;24.55;17.55;;;;;;;;;;4979126;28;20419;-69
2023/08/06 05:57:57;;;;;;;23.50;16.70;;;;;;;;;;4980173;28;20222;-70
2023/08/06 06:00:22;;;;;;;21.75;17.98;;;;;;;;;;4988152;28;20219;-70
2023/08/06 06:02:48;;;;;;;29.27;20.38;;;;;;;;;;4979409;28;20726;-70
2023/08/06 06:05:13;;;;;;;22.45;17.02;;;;;;;;;;4987285;28;20202;-70
2023/08/06 06:07:39;;;;;;;25.30;17.40;;;;;;;;;;4988991;28;20570;-71
2023/08/06 06:10:05;;;;;;;20.27;15.40;;;;;;;;;;4988434;28;20270;-70
2023/08/06 06:12:30;;;;;;;25.35;17.17;;;;;;;;;;5005581;28;20194;-70
2023/08/06 06:14:56;;;;;;;20.45;16.73;;;;;;;;;;4991357;28;20187;-70
2023/08/06 06:17:21;;;;;;;19.30;15.93;;;;;;;;;;4984582;28;20330;-70
2023/08/06 06:19:47;;;;;;;21.17;17.17;;;;;;;;;;4992065;28;20274;-70
2023/08/06 06:22:12;;;;;;;19.08;16.58;;;;;;;;;;4987229;28;20183;-70
2023/08/06 06:24:37;;;;;;;21.52;16.58;;;;;;;;;;4989246;28;20198;-70
2023/08/06 06:27:03;;;;;;;19.30;16.27;;;;;;;;;;4989624;28;20562;-70
2023/08/06 06:29:29;;;;;;;18.15;15.55;;;;;;;;;;4308962;28;10001355;-70
2023/08/06 06:31:54;;;;;;;18.77;14.32;;;;;;;;;;4993083;28;20197;-70
2023/08/06 06:34:19;;;;;;;16.38;13.55;;;;;;;;;;5006899;28;20194;-71
2023/08/06 06:36:45;;;;;;;16.35;13.73;;;;;;;;;;5008301;28;20587;-71
2023/08/06 06:39:10;;;;;;;15.80;13.80;;;;;;;;;;5004731;28;20203;-71
2023/08/06 06:41:35;;;;;;;16.17;13.27;;;;;;;;;;5009434;28;20222;-71
2023/08/06 06:44:01;;;;;;;17.17;14.52;;;;;;;;;;4988268;28;20187;-71
2023/08/06 06:46:26;;;;;;;15.00;13.40;;;;;;;;;;4999907;28;20195;-71
2023/08/06 06:48:51;;;;;;;22.90;13.90;;;;;;;;;;5002352;28;20218;-71
2023/08/06 06:51:17;;;;;;;15.20;12.40;;;;;;;;;;5001030;28;20270;-71
2023/08/06 06:53:42;;;;;;;14.93;12.32;;;;;;;;;;5001677;28;20195;-71
2023/08/06 06:56:08;;;;;;;17.38;11.98;;;;;;;;;;5001676;28;20203;-71
2023/08/06 06:58:33;;;;;;;15.20;12.70;;;;;;;;;;5002309;28;20210;-71
2023/08/06 07:00:59;;;;;;;15.65;13.23;;;;;;;;;;4977866;28;20226;-71
2023/08/06 07:03:24;;;;;;;13.30;11.90;;;;;;;;;;4994101;28;20187;-72
2023/08/06 07:05:50;;;;;;;14.38;12.32;;;;;;;;;;5011397;28;20191;-71
2023/08/06 07:08:16;;;;;;;16.60;12.27;;;;;;;;;;4993862;28;20551;-71
2023/08/06 07:10:41;;;;;;;16.40;12.60;;;;;;;;;;5009771;28;20202;-71
2023/08/06 07:13:07;;;;;;;15.35;12.80;;;;;;;;;;5016927;28;20210;-72
2023/08/06 07:15:33;;;;;;;16.17;13.02;;;;;;;;;;4999363;28;20266;-72
2023/08/06 07:17:58;;;;;;;15.45;13.40;;;;;;;;;;4983748;28;20233;-71
2023/08/06 07:20:23;;;;;;;17.75;13.10;;;;;;;;;;5009625;28;20197;-72
2023/08/06 07:22:49;;;;;;;16.45;13.05;;;;;;;;;;5008927;28;20183;-71
2023/08/06 07:25:16;;;;;;;14.95;12.80;;;;;;;;;;5006522;28;20668;-72
2023/08/06 07:27:41;;;;;;;17.92;13.77;;;;;;;;;;5006704;28;20211;-71
2023/08/06 07:30:07;;;;;;;14.35;12.85;;;;;;;;;;5006930;28;20455;-72
2023/08/06 07:32:32;;;;;;;14.95;13.23;;;;;;;;;;5009512;28;20204;-72
2023/08/06 07:35:00;;;;;;;14.90;13.27;;;;;;;;;;5008653;28;20541;-72
2023/08/06 07:37:29;;;;;;;16.20;13.15;;;;;;;;;;5020133;28;20259;-72
2023/08/06 07:39:55;;;;;;;15.48;12.40;;;;;;;;;;4979385;28;20201;-72
2023/08/06 07:42:21;;;;;;;14.68;12.75;;;;;;;;;;4989878;28;20194;-72
2023/08/06 07:44:55;;;;;;;15.38;11.90;;;;;;;;;;5005404;28;20385;-72
2023/08/06 07:47:20;;;;;;;15.07;11.45;;;;;;;;;;4994238;28;20207;-72
2023/08/06 07:49:46;;;;;;;14.18;12.35;;;;;;;;;;5004819;28;20197;-72
2023/08/06 07:52:11;;;;;;;17.30;12.05;;;;;;;;;;5007270;28;20190;-72
2023/08/06 07:54:36;;;;;;;13.73;11.55;;;;;;;;;;4993242;28;20196;-72
2023/08/06 07:57:02;;;;;;;13.75;11.18;;;;;;;;;;5008336;28;20274;-72
2023/08/06 07:59:27;;;;;;;13.85;11.18;;;;;;;;;;4995340;28;20869;-72
2023/08/06 08:01:53;;;;;;;13.45;10.70;;;;;;;;;;5010732;28;20201;-72
2023/08/06 08:04:18;;;;;;;12.00;9.88;;;;;;;;;;4998458;28;20602;-72
2023/08/06 08:06:43;;;;;;;12.25;9.93;;;;;;;;;;5005197;28;20222;-72
2023/08/06 08:09:09;;;;;;;15.50;9.70;;;;;;;;;;4992602;28;20219;-72
2023/08/06 08:11:34;;;;;;;13.93;10.23;;;;;;;;;;5005387;28;20297;-72
2023/08/06 08:14:00;;;;;;;15.70;10.90;;;;;;;;;;5010744;28;20270;-72
2023/08/06 08:16:25;;;;;;;15.93;10.35;;;;;;;;;;4998830;28;20190;-72
2023/08/06 08:18:50;;;;;;;12.25;10.32;;;;;;;;;;5006604;28;20557;-72
2023/08/06 08:21:16;;;;;;;13.82;10.80;;;;;;;;;;5004941;28;20203;-72
2023/08/06 08:23:42;;;;;;;11.63;10.43;;;;;;;;;;4992321;28;20191;-72
2023/08/06 08:26:07;;;;;;;12.18;10.82;;;;;;;;;;5012477;28;20665;-72
2023/08/06 08:28:33;;;;;;;11.00;9.90;;;;;;;;;;5001729;28;20233;-72
2023/08/06 08:30:58;;;;;;;11.43;10.05;;;;;;;;;;5003608;28;20248;-72
2023/08/06 08:33:24;;;;;;;11.40;9.88;;;;;;;;;;5009787;28;20195;-72
2023/08/06 08:35:49;;;;;;;11.00;9.23;;;;;;;;;;5003606;28;20522;-72
2023/08/06 08:38:14;;;;;;;14.93;9.50;;;;;;;;;;5029898;28;20330;-72
2023/08/06 08:40:46;;;;;;;13.50;9.10;;;;;;;;;;5016238;28;20197;-73
2023/08/06 08:43:12;;;;;;;11.65;8.93;;;;;;;;;;5005327;28;20255;-73
2023/08/06 08:45:39;;;;;;;9.32;8.43;;;;;;;;;;5017351;28;20349;-72
2023/08/06 08:48:06;;;;;;;10.27;8.30;;;;;;;;;;4995593;28;20203;-73
2023/08/06 08:50:32;;;;;;;9.85;8.20;;;;;;;;;;5010320;28;20641;-72
2023/08/06 08:52:57;;;;;;;12.00;8.35;;;;;;;;;;5014003;28;20190;-72
2023/08/06 08:55:22;;;;;;;10.93;7.85;;;;;;;;;;4993130;28;20331;-72
2023/08/06 08:57:48;;;;;;;10.50;7.53;;;;;;;;;;4995043;28;20184;-72
2023/08/06 09:00:14;;;;;;;9.38;8.35;;;;;;;;;;4998293;28;20191;-72
2023/08/06 09:02:41;;;;;;;9.15;8.07;;;;;;;;;;5012036;28;20255;-72
2023/08/06 09:05:07;;;;;;;11.35;8.68;;;;;;;;;;5010140;28;20186;-72
2023/08/06 09:07:38;;;;;;;9.85;8.20;;;;;;;;;;4998686;28;20215;-72
2023/08/06 09:10:06;;;;;;;10.90;9.32;;;;;;;;;;4991918;28;20187;-72
2023/08/06 09:12:32;;;;;;;10.27;8.48;;;;;;;;;;5010091;28;20261;-72
2023/08/06 09:14:57;;;;;;;11.13;8.38;;;;;;;;;;4993778;28;20183;-71
2023/08/06 09:17:22;;;;;;;12.48;9.23;;;;;;;;;;5005539;28;20279;-73
2023/08/06 09:19:49;;;;;;;10.35;9.35;;;;;;;;;;4979320;28;20211;-71
2023/08/06 09:22:15;;;;;;;10.68;8.73;;;;;;;;;;5001665;28;20198;-72
2023/08/06 09:24:43;;;;;;;11.32;8.05;;;;;;;;;;4994030;28;20557;-72
2023/08/06 09:27:13;;;;;;;11.15;8.35;;;;;;;;;;5007710;28;20213;-72
2023/08/06 09:29:43;;;;;;;10.73;8.75;;;;;;;;;;5010089;28;20234;-71
2023/08/06 09:32:09;;;;;;;9.82;8.45;;;;;;;;;;5003180;28;20289;-72
2023/08/06 09:34:34;;;;;;;9.20;7.50;;;;;;;;;;4999564;28;20215;-71
2023/08/06 09:37:00;;;;;;;8.02;7.22;;;;;;;;;;5022821;28;20667;-71
2023/08/06 09:39:28;;;;;;;8.25;7.53;;;;;;;;;;5010231;28;20256;-71
2023/08/06 09:42:01;;;;;;;9.65;8.00;;;;;;;;;;5009605;28;20290;-71
2023/08/06 09:44:28;;;;;;;8.77;6.88;;;;;;;;;;5018320;28;20190;-72
2023/08/06 09:46:55;;;;;;;11.10;7.78;;;;;;;;;;4972100;28;20191;-73
2023/08/06 09:49:45;;;;;;;8.20;7.40;;;;;;;;;;4987842;28;20503;-72
2023/08/06 09:52:12;;;;;;;11.55;7.80;;;;;;;;;;4982476;28;20187;-72
2023/08/06 09:54:38;;;;;;;7.88;7.07;;;;;;;;;;5002883;28;20183;-72
2023/08/06 09:57:05;;;;;;;8.80;7.90;;;;;;;;;;5005217;28;20209;-71
2023/08/06 09:59:32;;;;;;;7.85;6.78;;;;;;;;;;5011198;28;20514;-72
2023/08/06 10:01:58;;;;;;;7.78;6.47;;;;;;;;;;5002961;28;20191;-71
2023/08/06 10:04:23;;;;;;;8.10;6.50;;;;;;;;;;5009508;28;20189;-72
2023/08/06 10:06:49;;;;;;;7.47;5.82;;;;;;;;;;5016306;28;20662;-72
2023/08/06 10:09:14;;;;;;;9.13;5.80;;;;;;;;;;5009122;28;20182;-71
2023/08/06 10:11:42;;;;;;;10.43;7.25;;;;;;;;;;5015799;28;20285;-72
2023/08/06 10:14:15;;;;;;;7.30;6.47;;;;;;;;;;5017510;28;20186;-71
2023/08/06 10:16:42;;;;;;;6.70;6.05;;;;;;;;;;5000845;28;20614;-72
2023/08/06 10:19:09;;;;;;;8.20;5.97;;;;;;;;;;5004099;28;20218;-72
2023/08/06 10:21:35;;;;;;;6.32;5.60;;;;;;;;;;5015849;28;20227;-71
2023/08/06 10:24:03;;;;;;;9.13;7.63;;;;;;;;;;5018085;28;20307;-72
2023/08/06 10:26:29;;;;;;;8.10;7.30;;;;;;;;;;5007863;28;20730;-74
2023/08/06 10:28:55;;;;;;;10.30;8.32;;;;;;;;;;5001579;28;20314;-74
2023/08/06 10:31:53;;;;;;;8.27;7.47;;;;;;;;;;4995733;28;20858;-72
2023/08/06 10:34:19;;;;;;;7.03;6.32;;;;;;;;;;4977549;28;20238;-72
2023/08/06 10:36:44;;;;;;;8.57;6.68;;;;;;;;;;4971965;28;20623;-72
2023/08/06 10:39:13;;;;;;;7.00;6.32;;;;;;;;;;5000849;28;20191;-73
2023/08/06 10:41:42;;;;;;;6.65;5.05;;;;;;;;;;4996731;28;20245;-72
2023/08/06 10:44:09;;;;;;;5.20;4.70;;;;;;;;;;4993379;28;20188;-72
2023/08/06 10:46:35;;;;;;;5.53;4.18;;;;;;;;;;4995254;28;20196;-73
2023/08/06 10:49:01;;;;;;;4.55;2.67;;;;;;;;;;4966385;28;20214;-72
2023/08/06 10:51:27;;;;;;;4.85;3.45;;;;;;;;;;5003932;28;20315;-72
2023/08/06 10:53:53;;;;;;;5.88;4.47;;;;;;;;;;4980766;28;20331;-74
2023/08/06 10:56:22;;;;;;;6.53;2.95;;;;;;;;;;5001740;28;20253;-72
2023/08/06 10:58:48;;;;;;;4.63;3.50;;;;;;;;;;4992980;28;20187;-72
2023/08/06 11:01:15;;;;;;;4.68;4.28;;;;;;;;;;5003205;28;20493;-72
2023/08/06 11:03:44;;;;;;;3.60;3.10;;;;;;;;;;5000463;28;20607;-72
2023/08/06 11:06:10;;;;;;;6.68;3.00;;;;;;;;;;4996776;28;20586;-72
2023/08/06 11:08:38;;;;;;;6.97;3.58;;;;;;;;;;4992568;28;20286;-72
2023/08/06 11:11:14;;;;;;;5.60;3.50;;;;;;;;;;5002337;28;20196;-72
2023/08/06 11:13:41;;;;;;;2.75;2.53;;;;;;;;;;4973561;28;20502;-72
2023/08/06 11:16:06;;;;;;;3.85;3.55;;;;;;;;;;4982885;28;20270;-72
2023/08/06 11:18:35;;;;;;;7.40;5.80;;;;;;;;;;4981135;28;20744;-73
2023/08/06 11:21:01;;;;;;;5.65;5.15;;;;;;;;;;4974581;28;20565;-73
2023/08/06 11:23:28;;;;;;;5.20;4.80;;;;;;;;;;4975532;28;20177;-71
2023/08/06 11:25:54;;;;;;;5.97;5.40;;;;;;;;;;4973268;28;20196;-72
2023/08/06 11:28:23;;;;;;;7.60;6.90;;;;;;;;;;4993019;28;20265;-72
2023/08/06 11:30:49;;;;;;;7.80;7.10;;;;;;;;;;4985362;28;20191;-72
2023/08/06 11:33:20;;;;;;;8.70;7.80;;;;;;;;;;4997749;28;20223;-72
2023/08/06 11:35:45;;;;;;;6.47;5.88;;;;;;;;;;5011634;28;20190;-73
2023/08/06 11:38:13;;;;;;;10.75;7.97;;;;;;;;;;5012316;28;20233;-73
2023/08/06 11:40:39;;;;;;;8.00;6.60;;;;;;;;;;4996814;28;20270;-74
2023/08/06 11:43:05;;;;;;;7.63;6.80;;;;;;;;;;5002153;28;20680;-72
2023/08/06 11:45:30;;;;;;;8.43;6.57;;;;;;;;;;4994606;28;20223;-72
2023/08/06 11:47:56;;;;;;;7.07;6.47;;;;;;;;;;5005374;28;20318;-72
2023/08/06 11:50:31;;;;;;;9.07;7.30;;;;;;;;;;4991521;28;20191;-73
2023/08/06 11:52:58;;;;;;;7.55;6.28;;;;;;;;;;5007243;28;20316;-72
2023/08/06 11:55:24;;;;;;;8.70;6.35;;;;;;;;;;5015243;28;20249;-73
2023/08/06 11:57:50;;;;;;;7.80;7.00;;;;;;;;;;5008410;28;20277;-73
2023/08/06 12:00:21;;;;;;;8.93;7.97;;;;;;;;;;4991348;28;20478;-73
2023/08/06 12:02:49;;;;;;;8.05;6.88;;;;;;;;;;5002020;28;20198;-73
2023/08/06 12:05:20;;;;;;;6.90;6.20;;;;;;;;;;4991741;28;20183;-74
2023/08/06 12:07:57;;;;;;;6.78;6.10;;;;;;;;;;5005935;28;20297;-74
2023/08/06 12:10:25;;;;;;;6.65;5.40;;;;;;;;;;5011919;28;20193;-72
2023/08/06 12:12:50;;;;;;;6.40;5.20;;;;;;;;;;4984707;28;20199;-73
2023/08/06 12:15:16;;;;;;;6.70;5.97;;;;;;;;;;5021721;28;20692;-73
2023/08/06 12:17:42;;;;;;;6.43;5.82;;;;;;;;;;5022451;28;20249;-72
2023/08/06 12:20:09;;;;;;;7.30;5.20;;;;;;;;;;4994419;28;20178;-72
2023/08/06 12:22:35;;;;;;;4.82;4.38;;;;;;;;;;5020709;28;20198;-73
2023/08/06 12:25:08;;;;;;;6.28;4.50;;;;;;;;;;5003566;28;20650;-73
2023/08/06 12:27:37;;;;;;;5.80;4.85;;;;;;;;;;5019282;28;20222;-73
2023/08/06 12:30:04;;;;;;;6.07;5.47;;;;;;;;;;4999178;28;20654;-74
2023/08/06 12:32:29;;;;;;;7.18;5.82;;;;;;;;;;5002005;28;20199;-73
2023/08/06 12:34:55;;;;;;;5.55;4.78;;;;;;;;;;4995686;28;20282;-73
2023/08/06 12:37:21;;;;;;;7.22;5.05;;;;;;;;;;5008695;28;20175;-73
2023/08/06 12:39:46;;;;;;;5.63;4.35;;;;;;;;;;5006219;28;20286;-72
2023/08/06 12:42:12;;;;;;;5.60;4.65;;;;;;;;;;5015756;28;20190;-72
2023/08/06 12:44:37;;;;;;;4.88;4.47;;;;;;;;;;5000388;28;20561;-72
2023/08/06 12:47:02;;;;;;;5.50;4.35;;;;;;;;;;5004790;28;20198;-72
2023/08/06 12:49:28;;;;;;;7.90;4.28;;;;;;;;;;5022859;28;20687;-73
2023/08/06 12:51:54;;;;;;;5.13;4.63;;;;;;;;;;5010141;28;20203;-73
2023/08/06 12:54:20;;;;;;;5.10;4.38;;;;;;;;;;5012839;28;20187;-73
2023/08/06 12:56:47;;;;;;;5.72;4.20;;;;;;;;;;5014472;28;20622;-72
2023/08/06 12:59:14;;;;;;;5.00;3.88;;;;;;;;;;4985674;28;20301;-73
2023/08/06 13:01:40;;;;;;;4.28;3.47;;;;;;;;;;5004948;28;20190;-73
2023/08/06 13:04:05;;;;;;;4.45;3.10;;;;;;;;;;4992258;28;20212;-73
2023/08/06 13:06:35;;;;;;;4.75;4.20;;;;;;;;;;5025563;28;20186;-73
2023/08/06 13:09:01;;;;;;;3.83;3.50;;;;;;;;;;5013074;28;20207;-73
2023/08/06 13:11:26;;;;;;;5.07;3.05;;;;;;;;;;5019978;28;20289;-72
2023/08/06 13:13:52;;;;;;;3.10;2.80;;;;;;;;;;4996535;28;20194;-72
2023/08/06 13:16:17;;;;;;;3.47;3.08;;;;;;;;;;5022365;28;20609;-72
2023/08/06 13:18:43;;;;;;;3.60;3.30;;;;;;;;;;4998591;28;20228;-72
2023/08/06 13:21:08;;;;;;;5.03;3.30;;;;;;;;;;5016936;28;20222;-73
2023/08/06 13:23:33;;;;;;;4.20;3.42;;;;;;;;;;5012597;28;20223;-72
2023/08/06 13:25:59;;;;;;;4.32;3.08;;;;;;;;;;4991917;28;20194;-72
2023/08/06 13:28:24;;;;;;;3.67;3.38;;;;;;;;;;5009551;28;20694;-72
2023/08/06 13:30:49;;;;;;;4.50;3.30;;;;;;;;;;5018624;28;20221;-71
2023/08/06 13:33:15;;;;;;;3.53;3.22;;;;;;;;;;5015457;28;20203;-72
2023/08/06 13:35:40;;;;;;;5.82;3.38;;;;;;;;;;5007764;28;20191;-71
2023/08/06 13:38:06;;;;;;;4.03;3.25;;;;;;;;;;5012994;28;20186;-71
2023/08/06 13:40:33;;;;;;;3.65;2.88;;;;;;;;;;4992012;28;20205;-72
2023/08/06 13:42:59;;;;;;;3.95;3.00;;;;;;;;;;5018027;28;20183;-72
2023/08/06 13:45:24;;;;;;;2.97;2.70;;;;;;;;;;5010198;28;20633;-71
2023/08/06 13:47:50;;;;;;;2.80;2.60;;;;;;;;;;5005367;28;20206;-71
2023/08/06 13:50:15;;;;;;;5.53;2.85;;;;;;;;;;5001849;28;20719;-71
2023/08/06 13:52:41;;;;;;;3.10;2.80;;;;;;;;;;5013488;28;20632;-72
2023/08/06 13:55:07;;;;;;;4.22;2.88;;;;;;;;;;5009816;28;20191;-72
2023/08/06 13:57:33;;;;;;;3.65;2.83;;;;;;;;;;5010188;28;20673;-72
2023/08/06 13:59:59;;;;;;;2.88;2.53;;;;;;;;;;5016917;28;20197;-72
2023/08/06 14:02:25;;;;;;;3.03;2.38;;;;;;;;;;5018287;28;20187;-72
2023/08/06 14:04:51;;;;;;;3.10;2.40;;;;;;;;;;5011630;28;20209;-72
2023/08/06 14:07:16;;;;;;;3.75;2.45;;;;;;;;;;5018363;28;20275;-71
2023/08/06 14:09:44;;;;;;;3.83;2.72;;;;;;;;;;5011820;28;20528;-72
2023/08/06 14:12:09;;;;;;;3.28;2.70;;;;;;;;;;5020856;28;20249;-74
2023/08/06 14:14:34;;;;;;;2.10;1.90;;;;;;;;;;5002572;28;20190;-72
2023/08/06 14:17:00;;;;;;;2.38;1.70;;;;;;;;;;5009563;28;20203;-73
2023/08/06 14:19:26;;;;;;;4.70;1.80;;;;;;;;;;5010418;28;20198;-74
2023/08/06 14:21:51;;;;;;;6.07;2.42;;;;;;;;;;5009974;28;20197;-75